Impacts METAR Board
IDs:

KPDX - Portland Intl Arpt, OR, US

Updated at: 0300 UTC 22 Jun 2018
Potential Impact None Slight Moderate High
Time 21/15Z 21/16Z 21/17Z 21/18Z 21/19Z 21/20Z 21/21Z 21/22Z 21/23Z 22/00Z 22/01Z 22/02Z 22/03Z
Temp63 62 63 64 64 66 68 69 69 70 70 70 69
Dewpt55 56 56 56 55 55 54 55 55 57 57 57 56
Altim30.12 30.13 30.13 30.14 30.14 30.15 30.15 30.14 30.14 30.13 30.12 30.11 30.12
VIS10 10 10 10 10 10 10 10 10 10 10 10 10
CIG19 18 15 16 22 24 35 35 31 38 35 41 29
CoverOVCOVCOVCOVCOVCOVCOVCOVCOVCOVCBKNBKNOVC
FltCatMVFRMVFRMVFRMVFRMVFRMVFRVFRVFRVFRVFRVFRVFRMVFR
WX--------------------------
WDir29023032032000280700360340360320
WSpd4 5 4 3 0 0 3 4 0 3 4 3 7
WGst-- -- -- -- -- -- -- -- -- -- -- -- --
Raw hourly METARs
KPDX 211453Z 29004KT 10SM BKN019 OVC030CB 17/13 A3012 RMK AO2 TSE1359B04E37 SLP196 CB SW-W MOV NE T01720128 51009
KPDX 211553Z 23005KT 10SM FEW008 BKN018 OVC035 17/13 A3013 RMK AO2 RAB25E51 SLP201 P0000 T01670133
KPDX 211653Z 32004KT 10SM OVC015 17/13 A3013 RMK AO2 SLP202 T01720133
KPDX 211753Z 32003KT 10SM BKN016 OVC030 18/13 A3014 RMK AO2 SLP205 60000 T01780133 10178 20167 51008
KPDX 211853Z 00000KT 10SM BKN022 OVC028 18/13 A3014 RMK AO2 SLP207 T01780128
KPDX 211953Z 00000KT 10SM BKN024 OVC032 19/13 A3015 RMK AO2 SLP208 T01890128
KPDX 212053Z 28003KT 10SM FEW024 OVC035 20/12 A3015 RMK AO2 SLP208 T02000122 50003
KPDX 212153Z 07004KT 10SM SCT029 OVC035 21/13 A3014 RMK AO2 SLP205 T02060128
KPDX 212253Z 00000KT 10SM OVC031 21/13 A3014 RMK AO2 SLP206 T02060128
KPDX 212353Z 36003KT 10SM FEW029 OVC038 21/14 A3013 RMK AO2 SLP202 T02110139 10211 20178 58006
KPDX 220053Z 34004KT 10SM SCT026 BKN035 21/14 A3012 RMK AO2 SLP198 T02110139
KPDX 220153Z 36003KT 10SM FEW028 BKN041 21/14 A3011 RMK AO2 SLP194 T02110139
KPDX 220302Z 32007KT 10SM BKN029 OVC043 21/13 A3012 RMK AO2 T02060133



Page loaded:  03:18 UTC  |   08:18 PM Pacific  |   09:18 PM Mountain  |   10:18 PM Central  |   11:18 PM Eastern

 

ADVISORIES

FORECASTS

FORECASTS

OBSERVATIONS

USER TOOLS

ABOUT US